Time;durP1;ratioP1;P1;durP2;ratioP2;P2;SDS_P1;SDS_P2;PMS_P1;PMS_P2;Temp;Humidity;BMP_temperature;BMP_pressure;BME280_temperature;BME280_humidity;BME280_pressure;Samples;Min_cycle;Max_cycle;Signal;HPM_P1;HPM_P2
2021/12/27 00:00:35;;;;;;;;;;;-6.90;28.10;;;;;;5029891;28;20305;-80
2021/12/27 00:03:03;;;;;;;;;;;-5.90;99.90;;;;;;5031017;28;19948;-80
2021/12/27 00:05:30;;;;;;;;;;;-7.60;13.00;;;;;;5033140;28;19945;-81
2021/12/27 00:07:56;;;;;;;;;;;-6.90;36.40;;;;;;5028241;28;19952;-81
2021/12/27 00:10:24;;;;;;;;;;;-6.80;1.00;;;;;;5030000;28;19925;-81
2021/12/27 00:12:51;;;;;;;;;;;-6.80;1.00;;;;;;5026443;28;19955;-81
2021/12/27 00:15:19;;;;;;;;;;;-6.90;3.70;;;;;;5026862;28;19952;-81
2021/12/27 00:17:46;;;;;;;;;;;-6.80;1.00;;;;;;5023102;28;19926;-80
2021/12/27 00:20:16;;;;;;;;;;;-6.70;99.90;;;;;;5023092;28;19930;-81
2021/12/27 00:22:43;;;;;;;;;;;-6.80;99.90;;;;;;5024380;28;20388;-81
2021/12/27 00:25:09;;;;;;;;;;;-6.70;1.00;;;;;;5025073;28;19949;-82
2021/12/27 00:27:36;;;;;;;;;;;-7.20;1.00;;;;;;5026138;28;19961;-82
2021/12/27 00:30:03;;;;;;;;;;;-6.70;1.00;;;;;;5027511;28;20441;-82
2021/12/27 00:32:32;;;;;;;;;;;-6.60;1.00;;;;;;5027771;28;19925;-82
2021/12/27 00:34:59;;;;;;;;;;;-6.70;1.00;;;;;;5027546;28;19925;-82
2021/12/27 00:37:26;;;;;;;;;;;-6.40;1.00;;;;;;5026339;28;19925;-82
2021/12/27 00:39:52;;;;;;;;;;;-6.70;1.00;;;;;;5028296;28;19926;-83
2021/12/27 00:42:18;;;;;;;;;;;-6.70;1.00;;;;;;5026734;28;20018;-80
2021/12/27 00:44:45;;;;;;;;;;;-6.60;1.00;;;;;;5026838;28;19987;-82
2021/12/27 00:47:11;;;;;;;;;;;-6.60;1.00;;;;;;5027052;28;20388;-82
2021/12/27 00:49:39;;;;;;;;;;;-6.20;1.00;;;;;;5027519;28;20356;-82
2021/12/27 00:52:06;;;;;;;;;;;-6.50;1.00;;;;;;5027202;28;19930;-82
2021/12/27 00:54:32;;;;;;;;;;;-6.50;1.00;;;;;;5027659;28;19925;-82
2021/12/27 00:56:59;;;;;;;;;;;-6.60;1.00;;;;;;5028049;28;19926;-82
2021/12/27 00:59:25;;;;;;;;;;;-6.40;1.00;;;;;;5028539;28;19925;-82
2021/12/27 01:01:52;;;;;;;;;;;-6.40;1.00;;;;;;5027954;28;19925;-82
2021/12/27 01:04:18;;;;;;;;;;;-6.50;1.00;;;;;;5034383;28;19917;-79
2021/12/27 01:06:46;;;;;;;;;;;-6.50;1.00;;;;;;5028060;28;19925;-80
2021/12/27 01:09:17;;;;;;;;;;;-6.40;1.00;;;;;;5026625;28;19968;-80
2021/12/27 01:12:08;;;;;;;;;;;-6.90;1.00;;;;;;5026914;28;19926;-83
2021/12/27 01:14:41;;;;;;;;;;;-6.30;1.00;;;;;;5028981;28;19932;-82
2021/12/27 01:17:07;;;;;;;;;;;-6.40;99.90;;;;;;5024678;28;19930;-81
2021/12/27 01:19:34;;;;;;;;;;;-6.30;1.00;;;;;;5026259;28;19926;-81
2021/12/27 01:22:02;;;;;;;;;;;-5.80;99.90;;;;;;5026166;28;19926;-81
2021/12/27 01:24:28;;;;;;;;;;;-6.30;99.90;;;;;;5025875;28;20316;-83
2021/12/27 01:26:55;;;;;;;;;;;-6.40;99.90;;;;;;5025762;28;19948;-81
2021/12/27 01:29:21;;;;;;;;;;;-6.30;99.90;;;;;;5026064;28;19975;-81
2021/12/27 01:31:48;;;;;;;;;;;-6.80;99.90;;;;;;5026186;28;19929;-81
2021/12/27 01:34:14;;;;;;;;;;;-6.40;99.90;;;;;;5031228;28;19925;-79
2021/12/27 01:36:41;;;;;;;;;;;-6.30;99.90;;;;;;5037675;28;19926;-80
2021/12/27 01:39:09;;;;;;;;;;;-6.30;99.90;;;;;;5036210;28;19953;-80
2021/12/27 01:41:35;;;;;;;;;;;-6.30;99.90;;;;;;5036737;28;19926;-82
2021/12/27 01:44:02;;;;;;;;;;;-6.40;99.90;;;;;;5032914;28;19926;-80
2021/12/27 01:46:30;;;;;;;;;;;-6.30;99.90;;;;;;5030543;28;20434;-80
2021/12/27 01:48:57;;;;;;;;;;;-6.50;99.90;;;;;;5030368;28;19926;-81
2021/12/27 01:51:25;;;;;;;;;;;-6.30;99.90;;;;;;5034644;28;19910;-82
2021/12/27 01:53:51;;;;;;;;;;;-6.30;99.90;;;;;;5026795;28;19929;-81
2021/12/27 01:56:20;;;;;;;;;;;-6.30;99.90;;;;;;5025884;28;19937;-80
2021/12/27 01:58:47;;;;;;;;;;;-6.40;99.90;;;;;;5027193;28;19976;-81
2021/12/27 02:01:14;;;;;;;;;;;-6.30;99.90;;;;;;5029387;28;19949;-82
2021/12/27 02:03:41;;;;;;;;;;;-6.50;99.90;;;;;;5028308;28;19976;-82
2021/12/27 02:06:08;;;;;;;;;;;-6.50;99.90;;;;;;5027189;28;19929;-80
2021/12/27 02:08:36;;;;;;;;;;;-6.30;99.90;;;;;;5028154;28;19948;-80
2021/12/27 02:11:02;;;;;;;;;;;-6.40;99.90;;;;;;5026544;28;20333;-81
2021/12/27 02:13:30;;;;;;;;;;;-6.50;99.90;;;;;;5025801;28;19976;-82
2021/12/27 02:15:57;;;;;;;;;;;-6.30;99.90;;;;;;5025928;28;19969;-82
2021/12/27 02:18:23;;;;;;;;;;;-6.50;99.90;;;;;;5026001;28;20257;-81
2021/12/27 02:20:51;;;;;;;;;;;-6.20;99.90;;;;;;5025549;28;19967;-81
2021/12/27 02:23:18;;;;;;;;;;;-6.30;80.60;;;;;;5024949;28;20339;-82
2021/12/27 02:25:46;;;;;;;;;;;-6.20;65.20;;;;;;5026339;28;19926;-78
2021/12/27 02:28:13;;;;;;;;;;;-6.20;1.00;;;;;;5030607;28;20347;-78
2021/12/27 02:30:41;;;;;;;;;;;-5.60;1.00;;;;;;5033444;28;19948;-80
2021/12/27 02:33:08;;;;;;;;;;;-6.30;1.00;;;;;;5036487;28;19976;-82
2021/12/27 02:35:37;;;;;;;;;;;-6.50;1.00;;;;;;5018939;28;19925;-82
2021/12/27 02:38:06;;;;;;;;;;;-6.20;1.00;;;;;;5019426;28;19930;-80
2021/12/27 02:40:33;;;;;;;;;;;-6.20;4.30;;;;;;5020725;28;19969;-81
2021/12/27 02:43:03;;;;;;;;;;;-6.20;1.00;;;;;;5022644;28;19973;-81
2021/12/27 02:45:31;;;;;;;;;;;-6.20;1.00;;;;;;5027837;28;19925;-79
2021/12/27 02:47:58;;;;;;;;;;;-6.30;15.50;;;;;;5028707;28;19949;-80
2021/12/27 02:50:25;;;;;;;;;;;-6.00;1.00;;;;;;5029733;28;20280;-79
2021/12/27 02:52:52;;;;;;;;;;;-6.00;1.00;;;;;;5028083;28;19925;-80
2021/12/27 02:55:20;;;;;;;;;;;-6.00;1.00;;;;;;5027315;28;19930;-80
2021/12/27 02:57:47;;;;;;;;;;;-5.90;1.00;;;;;;5025422;28;19926;-80
2021/12/27 03:00:15;;;;;;;;;;;-6.00;1.00;;;;;;5024957;28;19926;-81
2021/12/27 03:02:43;;;;;;;;;;;-5.90;1.00;;;;;;5024912;28;19932;-79
2021/12/27 03:05:10;;;;;;;;;;;-6.20;1.00;;;;;;5023905;28;20419;-81
2021/12/27 03:07:36;;;;;;;;;;;-5.90;1.00;;;;;;5025720;28;19926;-81
2021/12/27 03:10:03;;;;;;;;;;;-5.80;1.00;;;;;;5024842;28;19932;-80
2021/12/27 03:12:31;;;;;;;;;;;-5.70;1.00;;;;;;5024394;28;19932;-81
2021/12/27 03:14:58;;;;;;;;;;;-5.60;1.00;;;;;;5025100;28;19926;-81
2021/12/27 03:17:24;;;;;;;;;;;-5.60;1.00;;;;;;5024590;28;19957;-82
2021/12/27 03:19:50;;;;;;;;;;;-5.70;1.00;;;;;;5025645;28;19926;-82
2021/12/27 03:22:17;;;;;;;;;;;-5.80;1.00;;;;;;5025982;28;20296;-80
2021/12/27 03:24:43;;;;;;;;;;;-5.80;1.00;;;;;;5038726;28;19977;-80
2021/12/27 03:27:10;;;;;;;;;;;-5.80;1.00;;;;;;5038641;28;19909;-81
2021/12/27 03:29:37;;;;;;;;;;;-4.80;1.00;;;;;;5035454;28;19925;-80
2021/12/27 03:32:04;;;;;;;;;;;-5.80;1.00;;;;;;5034379;28;19926;-80
2021/12/27 03:34:32;;;;;;;;;;;-5.80;1.00;;;;;;5035469;28;19913;-80
2021/12/27 03:36:58;;;;;;;;;;;-5.80;1.00;;;;;;5037138;28;19936;-80
2021/12/27 03:39:25;;;;;;;;;;;-4.70;1.00;;;;;;5036438;28;19926;-80
2021/12/27 03:41:51;;;;;;;;;;;-5.90;1.00;;;;;;5030628;28;20005;-79
2021/12/27 03:44:18;;;;;;;;;;;-5.80;1.00;;;;;;5029473;28;19925;-79
2021/12/27 03:46:45;;;;;;;;;;;-5.70;1.00;;;;;;5029424;28;19925;-80
2021/12/27 03:49:12;;;;;;;;;;;-5.80;1.00;;;;;;5028386;28;19925;-79
2021/12/27 03:51:43;;;;;;;;;;;-6.30;1.00;;;;;;5031300;28;19929;-79
2021/12/27 03:54:09;;;;;;;;;;;-5.80;1.00;;;;;;5031612;28;19933;-79
2021/12/27 03:56:36;;;;;;;;;;;-6.10;1.00;;;;;;5032449;28;19929;-79
2021/12/27 03:59:20;;;;;;;;;;;-5.90;1.00;;;;;;5032496;28;19948;-79
2021/12/27 04:01:48;;;;;;;;;;;-5.20;1.00;;;;;;5033211;28;19989;-79
2021/12/27 04:04:15;;;;;;;;;;;-5.80;1.00;;;;;;5033124;28;19936;-79
2021/12/27 04:06:41;;;;;;;;;;;-4.30;1.00;;;;;;5032581;28;19932;-79
2021/12/27 04:09:08;;;;;;;;;;;-5.70;1.00;;;;;;5032368;28;19947;-80
2021/12/27 04:11:34;;;;;;;;;;;-5.60;1.00;;;;;;5033191;28;19932;-79
2021/12/27 04:14:02;;;;;;;;;;;-5.70;1.00;;;;;;5034083;28;19916;-81
2021/12/27 04:16:28;;;;;;;;;;;-5.00;1.00;;;;;;5039830;28;19926;-80
2021/12/27 04:18:56;;;;;;;;;;;-5.60;1.00;;;;;;5034131;28;19925;-79
2021/12/27 04:21:22;;;;;;;;;;;-5.60;1.00;;;;;;5032022;28;19926;-78
2021/12/27 04:23:49;;;;;;;;;;;-5.60;1.00;;;;;;5032764;28;19937;-79
2021/12/27 04:26:15;;;;;;;;;;;-5.90;1.00;;;;;;5030998;28;19979;-81
2021/12/27 04:28:42;;;;;;;;;;;-5.50;1.00;;;;;;5030605;28;19925;-81
2021/12/27 04:31:08;;;;;;;;;;;-5.60;1.00;;;;;;5027863;28;19930;-80
2021/12/27 04:33:36;;;;;;;;;;;-5.20;99.90;;;;;;5030405;28;19933;-80
2021/12/27 04:36:04;;;;;;;;;;;-5.50;99.90;;;;;;5027214;28;19926;-81
2021/12/27 04:38:30;;;;;;;;;;;-5.40;99.90;;;;;;5026471;28;20368;-80
2021/12/27 04:40:57;;;;;;;;;;;-5.50;1.00;;;;;;5027958;28;19926;-79
2021/12/27 04:43:24;;;;;;;;;;;-5.00;1.00;;;;;;5032873;28;20344;-79
2021/12/27 04:45:51;;;;;;;;;;;-5.20;1.00;;;;;;5031744;28;19925;-79
2021/12/27 04:48:18;;;;;;;;;;;-5.50;99.90;;;;;;5033372;28;19929;-80
2021/12/27 04:50:45;;;;;;;;;;;-5.30;1.00;;;;;;5031491;28;19926;-80
2021/12/27 04:53:13;;;;;;;;;;;-5.30;1.00;;;;;;5031158;28;19932;-80
2021/12/27 04:55:40;;;;;;;;;;;-5.30;99.90;;;;;;5035886;28;19926;-82
2021/12/27 04:58:09;;;;;;;;;;;-5.30;99.90;;;;;;5031540;28;20277;-82
2021/12/27 05:00:35;;;;;;;;;;;-5.30;99.90;;;;;;5024789;28;19925;-82
2021/12/27 05:03:02;;;;;;;;;;;-5.20;99.90;;;;;;5026308;28;19961;-82
2021/12/27 05:05:30;;;;;;;;;;;-5.30;99.90;;;;;;5027162;28;19956;-81
2021/12/27 05:07:59;;;;;;;;;;;-5.30;1.00;;;;;;5027641;28;19932;-82
2021/12/27 05:10:27;;;;;;;;;;;-5.80;99.90;;;;;;5037049;28;19953;-80
2021/12/27 05:12:54;;;;;;;;;;;-5.20;99.90;;;;;;5038456;28;19924;-79
2021/12/27 05:15:20;;;;;;;;;;;-5.40;99.90;;;;;;5031654;28;19964;-81
2021/12/27 05:17:47;;;;;;;;;;;-5.30;99.90;;;;;;5027891;28;19926;-82
2021/12/27 05:20:14;;;;;;;;;;;-5.20;99.90;;;;;;5029006;28;19929;-82
2021/12/27 05:22:40;;;;;;;;;;;-5.20;1.00;;;;;;5028070;28;19957;-81
2021/12/27 05:25:07;;;;;;;;;;;-4.40;1.00;;;;;;5027892;28;19945;-82
2021/12/27 05:27:35;;;;;;;;;;;-5.10;1.00;;;;;;5027510;28;19925;-82
2021/12/27 05:30:01;;;;;;;;;;;-5.00;99.90;;;;;;5026891;28;20013;-82
2021/12/27 05:32:28;;;;;;;;;;;-5.00;99.90;;;;;;5026593;28;19925;-82
2021/12/27 05:34:54;;;;;;;;;;;-4.80;99.90;;;;;;5025752;28;20451;-82
2021/12/27 05:37:20;;;;;;;;;;;-5.30;99.90;;;;;;5026838;28;19925;-82
2021/12/27 05:39:48;;;;;;;;;;;-5.00;99.90;;;;;;5026517;28;19925;-82
2021/12/27 05:42:14;;;;;;;;;;;-5.10;99.90;;;;;;5027168;28;19956;-82
2021/12/27 05:44:42;;;;;;;;;;;-5.00;1.00;;;;;;5027781;28;19934;-82
2021/12/27 05:47:08;;;;;;;;;;;-5.10;99.90;;;;;;5026104;28;19933;-81
2021/12/27 05:49:35;;;;;;;;;;;-5.10;1.00;;;;;;5026643;28;19925;-81
2021/12/27 05:52:01;;;;;;;;;;;-5.00;1.00;;;;;;5026771;28;19925;-81
2021/12/27 05:54:27;;;;;;;;;;;-5.20;1.00;;;;;;5027282;28;19925;-80
2021/12/27 05:56:54;;;;;;;;;;;-5.00;1.00;;;;;;5027747;28;19925;-80
2021/12/27 05:59:20;;;;;;;;;;;-4.70;1.00;;;;;;5034965;28;19910;-79
2021/12/27 06:01:48;;;;;;;;;;;-4.70;99.90;;;;;;5036876;28;19926;-80
2021/12/27 06:04:15;;;;;;;;;;;-4.70;99.90;;;;;;5036458;28;19926;-80
2021/12/27 06:06:41;;;;;;;;;;;-4.60;99.90;;;;;;5034945;28;19925;-80
2021/12/27 06:09:08;;;;;;;;;;;-5.00;99.90;;;;;;5032491;28;19925;-80
2021/12/27 06:11:34;;;;;;;;;;;-4.70;99.90;;;;;;5031313;28;19976;-80
2021/12/27 06:14:01;;;;;;;;;;;-4.70;99.90;;;;;;5032137;28;20285;-79
2021/12/27 06:16:27;;;;;;;;;;;-4.70;99.90;;;;;;5037775;28;19928;-79
2021/12/27 06:18:55;;;;;;;;;;;-4.80;99.90;;;;;;5038064;28;19914;-81
2021/12/27 06:21:22;;;;;;;;;;;-4.70;1.00;;;;;;5031469;28;19949;-80
2021/12/27 06:23:48;;;;;;;;;;;-5.20;99.90;;;;;;5031942;28;19925;-80
2021/12/27 06:26:15;;;;;;;;;;;-3.30;99.90;;;;;;5029194;28;19925;-80
2021/12/27 06:28:41;;;;;;;;;;;-4.80;99.90;;;;;;5029839;28;20310;-79
2021/12/27 06:31:08;;;;;;;;;;;-3.60;99.90;;;;;;5030745;28;19929;-82
2021/12/27 06:33:35;;;;;;;;;;;-5.10;1.00;;;;;;5029368;28;19926;-78
2021/12/27 06:36:03;;;;;;;;;;;-4.70;99.90;;;;;;5026795;28;19925;-78
2021/12/27 06:38:29;;;;;;;;;;;-4.60;99.90;;;;;;5026466;28;19929;-82
2021/12/27 06:40:56;;;;;;;;;;;-4.50;99.90;;;;;;5026405;28;19926;-81
2021/12/27 06:43:23;;;;;;;;;;;-4.70;99.90;;;;;;5026493;28;19926;-80
2021/12/27 06:45:49;;;;;;;;;;;-4.50;99.90;;;;;;5025408;28;19929;-81
2021/12/27 06:48:16;;;;;;;;;;;-4.50;1.00;;;;;;5025221;28;20005;-83
2021/12/27 06:50:42;;;;;;;;;;;-4.50;1.00;;;;;;5029632;28;19925;-80
2021/12/27 06:53:10;;;;;;;;;;;-4.50;99.90;;;;;;5031266;28;19933;-80
2021/12/27 06:55:37;;;;;;;;;;;-4.40;1.00;;;;;;5029275;28;19979;-80
2021/12/27 06:58:03;;;;;;;;;;;-4.40;1.00;;;;;;5027690;28;19933;-80
2021/12/27 07:00:30;;;;;;;;;;;-4.40;99.90;;;;;;5027247;28;19940;-81
2021/12/27 07:02:56;;;;;;;;;;;-4.40;1.00;;;;;;5027148;28;19979;-80
2021/12/27 07:05:23;;;;;;;;;;;-4.50;1.00;;;;;;5026087;28;19968;-81
2021/12/27 07:07:49;;;;;;;;;;;-4.10;99.90;;;;;;5026048;28;19925;-82
2021/12/27 07:10:19;;;;;;;;;;;-4.40;99.90;;;;;;5025651;28;19975;-82
2021/12/27 07:12:45;;;;;;;;;;;-4.40;1.00;;;;;;5026055;28;19933;-82
2021/12/27 07:15:12;;;;;;;;;;;-4.30;1.00;;;;;;5025673;28;19932;-82
2021/12/27 07:17:38;;;;;;;;;;;-4.30;1.00;;;;;;5025286;28;19925;-82
2021/12/27 07:20:05;;;;;;;;;;;-3.00;1.00;;;;;;5026770;28;19925;-82
2021/12/27 07:22:32;;;;;;;;;;;-4.30;1.00;;;;;;5029044;28;19925;-82
2021/12/27 07:24:59;;;;;;;;;;;-4.20;44.00;;;;;;5028269;28;19976;-82
2021/12/27 07:27:27;;;;;;;;;;;-4.20;99.90;;;;;;5029904;28;19926;-82
2021/12/27 07:29:53;;;;;;;;;;;-4.40;99.90;;;;;;5030220;28;19926;-80
2021/12/27 07:32:20;;;;;;;;;;;-4.40;1.00;;;;;;5029716;28;19933;-81
2021/12/27 07:34:47;;;;;;;;;;;-4.40;1.00;;;;;;5027927;28;19952;-81
2021/12/27 07:37:15;;;;;;;;;;;-3.90;1.00;;;;;;5028138;28;19936;-82
2021/12/27 07:39:42;;;;;;;;;;;-4.90;1.00;;;;;;5028539;28;19932;-82
2021/12/27 07:42:08;;;;;;;;;;;-4.40;88.70;;;;;;5027413;28;20024;-82
2021/12/27 07:44:36;;;;;;;;;;;-4.30;1.00;;;;;;5028611;28;19932;-82
2021/12/27 07:47:03;;;;;;;;;;;-4.30;99.90;;;;;;5020844;28;19964;-81
2021/12/27 07:49:29;;;;;;;;;;;-4.20;99.90;;;;;;5033115;28;19936;-80
2021/12/27 07:51:56;;;;;;;;;;;-4.00;1.00;;;;;;5039873;28;19910;-80
2021/12/27 07:54:22;;;;;;;;;;;-4.10;99.90;;;;;;5039848;28;19926;-80
2021/12/27 07:56:49;;;;;;;;;;;-4.30;60.00;;;;;;5039860;28;19925;-79
2021/12/27 07:59:15;;;;;;;;;;;-4.20;42.80;;;;;;5040005;28;19930;-80
2021/12/27 08:01:43;;;;;;;;;;;-4.10;1.00;;;;;;5039758;28;19925;-81
2021/12/27 08:04:10;;;;;;;;;;;-4.10;1.00;;;;;;5036096;28;19937;-81
2021/12/27 08:06:36;;;;;;;;;;;-4.00;1.00;;;;;;5030673;28;19925;-79
2021/12/27 08:09:04;;;;;;;;;;;-3.90;18.00;;;;;;5029786;28;20029;-79
2021/12/27 08:11:30;;;;;;;;;;;-3.90;99.90;;;;;;5028596;28;19953;-79
2021/12/27 08:13:57;;;;;;;;;;;-3.70;99.90;;;;;;5027740;28;19952;-81
2021/12/27 08:16:24;;;;;;;;;;;-3.10;99.90;;;;;;5027713;28;19972;-81
2021/12/27 08:18:52;;;;;;;;;;;-3.80;1.00;;;;;;5027626;28;19953;-81
2021/12/27 08:21:19;;;;;;;;;;;-3.80;75.30;;;;;;5027527;28;20001;-81
2021/12/27 08:23:45;;;;;;;;;;;-3.70;1.00;;;;;;5027695;28;19933;-80
2021/12/27 08:26:12;;;;;;;;;;;-4.10;99.90;;;;;;5027837;28;20400;-79
2021/12/27 08:28:38;;;;;;;;;;;-3.60;1.00;;;;;;5026671;28;19925;-81
2021/12/27 08:31:05;;;;;;;;;;;-3.60;99.90;;;;;;5027129;28;19949;-81
2021/12/27 08:33:31;;;;;;;;;;;-3.70;7.30;;;;;;5027005;28;19925;-81
2021/12/27 08:35:59;;;;;;;;;;;-3.60;1.00;;;;;;5036020;28;20412;-80
2021/12/27 08:38:26;;;;;;;;;;;-3.70;99.90;;;;;;5031265;28;19926;-82
2021/12/27 08:40:52;;;;;;;;;;;-3.50;1.00;;;;;;5026779;28;19925;-81
2021/12/27 08:43:19;;;;;;;;;;;-3.40;99.90;;;;;;5026610;28;19925;-81
2021/12/27 08:45:45;;;;;;;;;;;-3.40;99.90;;;;;;5028745;28;20257;-81
2021/12/27 08:48:12;;;;;;;;;;;-3.40;1.00;;;;;;5035079;28;19926;-81
2021/12/27 08:50:39;;;;;;;;;;;-3.40;99.90;;;;;;5026810;28;19925;-81
2021/12/27 08:53:08;;;;;;;;;;;-3.40;98.50;;;;;;5026521;28;19925;-82
2021/12/27 08:55:34;;;;;;;;;;;-3.50;99.90;;;;;;5032205;28;20331;-80
2021/12/27 08:58:01;;;;;;;;;;;-3.50;1.00;;;;;;5034084;28;19926;-79
2021/12/27 09:00:27;;;;;;;;;;;-2.60;1.00;;;;;;5032220;28;19925;-81
2021/12/27 09:02:54;;;;;;;;;;;-3.40;1.00;;;;;;5026596;28;19926;-82
2021/12/27 09:05:20;;;;;;;;;;;-3.20;99.90;;;;;;5026077;28;19925;-81
2021/12/27 09:07:47;;;;;;;;;;;-3.20;1.00;;;;;;5025918;28;19926;-80
2021/12/27 09:10:15;;;;;;;;;;;-3.10;99.90;;;;;;5026706;28;19960;-79
2021/12/27 09:12:41;;;;;;;;;;;-3.20;99.20;;;;;;5025882;28;19925;-81
2021/12/27 09:15:08;;;;;;;;;;;-3.50;1.00;;;;;;5025651;28;19932;-80
2021/12/27 09:17:35;;;;;;;;;;;-3.10;99.90;;;;;;5025564;28;20293;-81
2021/12/27 09:20:02;;;;;;;;;;;-3.00;99.90;;;;;;5025806;28;19926;-80
2021/12/27 09:22:28;;;;;;;;;;;-3.20;10.30;;;;;;5026148;28;19932;-82
2021/12/27 09:24:55;;;;;;;;;;;-3.00;1.00;;;;;;5026323;28;19933;-81
2021/12/27 09:27:22;;;;;;;;;;;-3.00;99.90;;;;;;5026716;28;19925;-81
2021/12/27 09:29:50;;;;;;;;;;;-3.00;1.00;;;;;;5026597;28;19926;-82
2021/12/27 09:32:16;;;;;;;;;;;-3.00;99.90;;;;;;5026518;28;19925;-81
2021/12/27 09:34:44;;;;;;;;;;;-2.90;1.00;;;;;;5025517;28;19972;-81
2021/12/27 09:37:10;;;;;;;;;;;-3.10;1.00;;;;;;5025308;28;20023;-81
2021/12/27 09:39:37;;;;;;;;;;;-3.40;1.00;;;;;;5026184;28;19925;-81
2021/12/27 09:42:03;;;;;;;;;;;-3.20;1.00;;;;;;5030611;28;19925;-81
2021/12/27 09:44:31;;;;;;;;;;;-2.80;47.50;;;;;;5036693;28;19914;-80
2021/12/27 09:46:58;;;;;;;;;;;-2.80;1.00;;;;;;5030266;28;19926;-81
2021/12/27 09:49:29;;;;;;;;;;;-2.90;1.00;;;;;;5021307;28;19930;-80
2021/12/27 09:51:56;;;;;;;;;;;-2.90;1.00;;;;;;5020672;28;20340;-80
2021/12/27 09:54:23;;;;;;;;;;;-3.00;99.90;;;;;;5021823;28;19969;-79
2021/12/27 09:56:49;;;;;;;;;;;-2.80;99.90;;;;;;5022669;28;19980;-81
2021/12/27 09:59:16;;;;;;;;;;;-2.70;10.70;;;;;;5021042;28;19971;-81
2021/12/27 10:01:44;;;;;;;;;;;-2.70;99.90;;;;;;5021957;28;19971;-81
2021/12/27 10:04:10;;;;;;;;;;;-2.60;1.00;;;;;;5022551;28;19964;-81
2021/12/27 10:06:37;;;;;;;;;;;-2.70;1.00;;;;;;5022913;28;19925;-80
2021/12/27 10:09:05;;;;;;;;;;;-2.10;1.00;;;;;;5024057;28;20354;-81
2021/12/27 10:11:33;;;;;;;;;;;-2.50;1.00;;;;;;5024261;28;20462;-81
2021/12/27 10:14:00;;;;;;;;;;;-2.50;1.00;;;;;;5024330;28;19929;-80
2021/12/27 10:16:27;;;;;;;;;;;-2.40;1.00;;;;;;5024916;28;19949;-81
2021/12/27 10:18:56;;;;;;;;;;;-2.60;99.90;;;;;;5024138;28;19937;-80
2021/12/27 10:21:22;;;;;;;;;;;-2.30;1.00;;;;;;5022727;28;19925;-81
2021/12/27 10:23:49;;;;;;;;;;;-2.40;1.00;;;;;;5016979;28;19934;-81
2021/12/27 10:26:18;;;;;;;;;;;-2.30;1.00;;;;;;5016825;28;19990;-82
2021/12/27 10:28:45;;;;;;;;;;;-2.20;1.00;;;;;;5021024;28;19925;-80
2021/12/27 10:31:11;;;;;;;;;;;-2.10;1.00;;;;;;5021737;28;19926;-80
2021/12/27 10:33:38;;;;;;;;;;;-1.90;99.90;;;;;;5022945;28;19953;-81
2021/12/27 10:36:06;;;;;;;;;;;-1.60;99.90;;;;;;5022270;28;19926;-81
2021/12/27 10:38:36;;;;;;;;;;;-1.80;99.90;;;;;;5023476;28;19929;-80
2021/12/27 10:41:04;;;;;;;;;;;-1.70;99.90;;;;;;5023519;28;19929;-81
2021/12/27 10:43:39;;;;;;;;;;;-1.50;99.90;;;;;;5023303;28;19968;-80
2021/12/27 10:46:06;;;;;;;;;;;-1.60;1.00;;;;;;5023840;28;19925;-81
2021/12/27 10:48:34;;;;;;;;;;;-1.80;80.60;;;;;;5023378;28;19957;-81
2021/12/27 10:51:00;;;;;;;;;;;-1.50;93.00;;;;;;5023843;28;19948;-80
2021/12/27 10:53:28;;;;;;;;;;;-1.60;8.80;;;;;;5023250;28;19925;-81
2021/12/27 10:55:56;;;;;;;;;;;-1.80;14.60;;;;;;5023086;28;19933;-81
2021/12/27 10:58:24;;;;;;;;;;;-2.30;99.90;;;;;;5024320;28;19930;-81
2021/12/27 11:00:52;;;;;;;;;;;-1.80;99.90;;;;;;5025169;28;19965;-81
2021/12/27 11:03:23;;;;;;;;;;;-1.90;99.90;;;;;;5028756;28;19925;-81
2021/12/27 11:05:49;;;;;;;;;;;-1.90;99.90;;;;;;5028916;28;19925;-82
2021/12/27 11:08:16;;;;;;;;;;;-1.80;1.00;;;;;;5029599;28;19925;-81
2021/12/27 11:10:43;;;;;;;;;;;-1.70;1.00;;;;;;5031382;28;19976;-81
2021/12/27 11:13:10;;;;;;;;;;;-1.60;99.90;;;;;;5031820;28;19932;-80
2021/12/27 11:15:37;;;;;;;;;;;-1.50;99.90;;;;;;5033124;28;19941;-79
2021/12/27 11:18:04;;;;;;;;;;;-1.50;99.90;;;;;;5032499;28;19993;-80
2021/12/27 11:20:31;;;;;;;;;;;-1.40;18.80;;;;;;5033176;28;19949;-79
2021/12/27 11:22:59;;;;;;;;;;;-1.40;1.00;;;;;;5036493;28;19940;-81
2021/12/27 11:25:31;;;;;;;;;;;-1.30;1.00;;;;;;5039798;28;19936;-79
2021/12/27 11:27:59;;;;;;;;;;;-1.30;1.00;;;;;;5033012;28;19933;-80
2021/12/27 11:30:27;;;;;;;;;;;-1.20;1.00;;;;;;5029844;28;19948;-81
2021/12/27 11:33:01;;;;;;;;;;;-1.30;1.00;;;;;;5029065;28;19988;-81
2021/12/27 11:35:30;;;;;;;;;;;-1.20;29.30;;;;;;5029223;28;19925;-81
2021/12/27 11:38:00;;;;;;;;;;;-1.20;99.90;;;;;;5033027;28;19961;-79
2021/12/27 11:40:38;;;;;;;;;;;-1.10;12.70;;;;;;5034662;28;19925;-79
2021/12/27 11:43:06;;;;;;;;;;;-1.00;47.90;;;;;;5037370;28;19926;-79
2021/12/27 11:45:40;;;;;;;;;;;-1.00;46.20;;;;;;5035555;28;19957;-79
2021/12/27 11:48:08;;;;;;;;;;;-0.90;1.00;;;;;;5030396;28;19926;-81
2021/12/27 11:50:34;;;;;;;;;;;-0.90;1.00;;;;;;5028821;28;19976;-81
2021/12/27 11:53:05;;;;;;;;;;;-0.10;1.00;;;;;;5028495;28;19925;-82
2021/12/27 11:55:38;;;;;;;;;;;-0.90;1.00;;;;;;5027754;28;19926;-82
2021/12/27 11:58:04;;;;;;;;;;;-1.00;1.00;;;;;;5028308;28;19932;-82
2021/12/27 12:00:38;;;;;;;;;;;-1.00;1.00;;;;;;5027798;28;19925;-82
2021/12/27 12:03:16;;;;;;;;;;;-0.90;1.00;;;;;;5028335;28;19925;-82
2021/12/27 12:05:43;;;;;;;;;;;-1.00;1.00;;;;;;5026148;28;19929;-82
2021/12/27 12:08:10;;;;;;;;;;;-0.80;1.00;;;;;;5024312;28;19948;-81
2021/12/27 12:10:37;;;;;;;;;;;-0.80;1.00;;;;;;5022777;28;19973;-81
2021/12/27 12:13:23;;;;;;;;;;;-0.70;1.00;;;;;;5023741;28;19948;-81
2021/12/27 12:15:59;;;;;;;;;;;-0.70;1.00;;;;;;5027092;28;19926;-82
2021/12/27 12:18:25;;;;;;;;;;;-0.70;1.00;;;;;;5026227;28;20470;-82
2021/12/27 12:20:52;;;;;;;;;;;-0.40;1.00;;;;;;5028015;28;19926;-81
2021/12/27 12:23:18;;;;;;;;;;;-0.60;1.00;;;;;;5027532;28;19973;-81
2021/12/27 12:25:45;;;;;;;;;;;-0.50;1.00;;;;;;5027876;28;19933;-81
2021/12/27 12:28:12;;;;;;;;;;;-0.50;1.00;;;;;;5027591;28;19932;-81
2021/12/27 12:30:41;;;;;;;;;;;-0.50;1.00;;;;;;5027475;28;19972;-81
2021/12/27 12:33:09;;;;;;;;;;;-0.40;1.00;;;;;;5027796;28;19925;-81
2021/12/27 12:35:37;;;;;;;;;;;-0.40;1.00;;;;;;5026609;28;19926;-81
2021/12/27 12:38:14;;;;;;;;;;;-0.40;1.00;;;;;;5026757;28;19926;-80
2021/12/27 12:40:41;;;;;;;;;;;-0.40;1.00;;;;;;5025676;28;19926;-81
2021/12/27 12:43:08;;;;;;;;;;;-0.40;1.00;;;;;;5026305;28;19925;-81
2021/12/27 12:45:36;;;;;;;;;;;-0.40;1.00;;;;;;5025793;28;19932;-80
2021/12/27 12:48:03;;;;;;;;;;;-0.40;1.00;;;;;;5026765;28;19929;-80
2021/12/27 12:50:31;;;;;;;;;;;-0.40;1.00;;;;;;5026836;28;19925;-80
2021/12/27 12:52:59;;;;;;;;;;;-0.40;1.00;;;;;;5026546;28;19925;-81
2021/12/27 12:55:26;;;;;;;;;;;-0.40;1.00;;;;;;5024554;28;19925;-81
2021/12/27 12:57:53;;;;;;;;;;;-0.40;1.00;;;;;;5024994;28;20319;-81
2021/12/27 13:00:21;;;;;;;;;;;-0.70;1.00;;;;;;5024558;28;19969;-81
2021/12/27 13:02:48;;;;;;;;;;;-0.30;1.00;;;;;;5024933;28;19948;-81
2021/12/27 13:05:15;;;;;;;;;;;-0.30;1.00;;;;;;5023987;28;19930;-81
2021/12/27 13:07:45;;;;;;;;;;;-0.30;1.00;;;;;;5025067;28;19925;-81
2021/12/27 13:10:17;;;;;;;;;;;-0.30;1.00;;;;;;5023954;28;19925;-82
2021/12/27 13:12:44;;;;;;;;;;;-0.20;1.00;;;;;;5024207;28;20361;-80
2021/12/27 13:15:12;;;;;;;;;;;-0.20;1.00;;;;;;5024340;28;19926;-81
2021/12/27 13:17:39;;;;;;;;;;;-0.20;1.00;;;;;;5024035;28;19925;-81
2021/12/27 13:20:07;;;;;;;;;;;-0.30;1.00;;;;;;5036782;28;19932;-81
2021/12/27 13:22:41;;;;;;;;;;;-0.30;1.00;;;;;;5022243;28;19929;-80
2021/12/27 13:25:09;;;;;;;;;;;-0.30;1.00;;;;;;5020453;28;19960;-81
2021/12/27 13:27:36;;;;;;;;;;;-0.30;1.00;;;;;;5022817;28;19926;-81
2021/12/27 13:30:04;;;;;;;;;;;-0.30;1.00;;;;;;5020797;28;20012;-81
2021/12/27 13:32:30;;;;;;;;;;;-0.20;1.00;;;;;;5024025;28;19952;-81
2021/12/27 13:34:57;;;;;;;;;;;-0.20;1.00;;;;;;5025825;28;19952;-79
2021/12/27 13:37:23;;;;;;;;;;;-0.30;1.00;;;;;;5026100;28;19936;-80
2021/12/27 13:39:50;;;;;;;;;;;-0.30;1.00;;;;;;5025013;28;19933;-79
2021/12/27 13:42:18;;;;;;;;;;;-0.30;1.00;;;;;;5023686;28;19925;-83
2021/12/27 13:44:44;;;;;;;;;;;-0.40;1.00;;;;;;5024497;28;19926;-81
2021/12/27 13:47:12;;;;;;;;;;;-0.50;1.00;;;;;;5023890;28;19952;-82
2021/12/27 13:49:39;;;;;;;;;;;-0.40;1.00;;;;;;5024431;28;19957;-83
2021/12/27 13:52:06;;;;;;;;;;;-0.40;1.00;;;;;;5024101;28;20367;-82
2021/12/27 13:54:39;;;;;;;;;;;-0.40;1.00;;;;;;5023990;28;19989;-81
2021/12/27 13:57:06;;;;;;;;;;;-0.40;1.00;;;;;;5025461;28;19992;-82
2021/12/27 13:59:36;;;;;;;;;;;-0.40;1.00;;;;;;5024487;28;19936;-81
2021/12/27 14:02:03;;;;;;;;;;;-0.30;1.00;;;;;;5023955;28;19926;-82
2021/12/27 14:04:30;;;;;;;;;;;-0.30;1.00;;;;;;5023717;28;19926;-79
2021/12/27 14:06:58;;;;;;;;;;;-0.30;1.00;;;;;;5025162;28;19925;-81
2021/12/27 14:09:25;;;;;;;;;;;-0.30;1.00;;;;;;5030248;28;19960;-80
2021/12/27 14:11:54;;;;;;;;;;;-0.40;1.00;;;;;;5036784;28;22611;-79
2021/12/27 14:14:33;;;;;;;;;;;-0.40;1.00;;;;;;5033451;28;19925;-79
2021/12/27 14:17:06;;;;;;;;;;;-0.40;1.00;;;;;;5032363;28;19956;-80
2021/12/27 14:19:32;;;;;;;;;;;-0.40;1.00;;;;;;5026899;28;19999;-82
2021/12/27 14:22:04;;;;;;;;;;;-0.40;1.00;;;;;;5023853;28;19957;-83
2021/12/27 14:24:32;;;;;;;;;;;-0.30;1.00;;;;;;5029954;28;19926;-79
2021/12/27 14:26:59;;;;;;;;;;;-0.30;1.00;;;;;;5038135;28;19914;-81